sensor_id;sensor_type;location;lat;lon;timestamp;pressure;altitude;pressure_sealevel;temperature;humidity
19761;BME280;10039;42.632;23.408;2023-01-28T00:00:08;94324.78;;;1.69;77.94
19761;BME280;10039;42.632;23.408;2023-01-28T00:02:34;94328.13;;;1.59;77.85
19761;BME280;10039;42.632;23.408;2023-01-28T00:05:01;94332.69;;;1.69;77.95
19761;BME280;10039;42.632;23.408;2023-01-28T00:07:27;94309.34;;;1.60;77.89
19761;BME280;10039;42.632;23.408;2023-01-28T00:09:55;94336.00;;;1.62;77.71
19761;BME280;10039;42.632;23.408;2023-01-28T00:12:21;94317.59;;;1.59;77.74
19761;BME280;10039;42.632;23.408;2023-01-28T00:14:48;94366.03;;;1.61;77.76
19761;BME280;10039;42.632;23.408;2023-01-28T00:17:14;94386.03;;;1.73;78.15
19761;BME280;10039;42.632;23.408;2023-01-28T00:19:40;94329.97;;;1.51;78.04
19761;BME280;10039;42.632;23.408;2023-01-28T00:22:05;94366.84;;;1.69;77.54
19761;BME280;10039;42.632;23.408;2023-01-28T00:24:31;94385.25;;;1.69;77.83
19761;BME280;10039;42.632;23.408;2023-01-28T00:26:57;94337.38;;;1.32;77.58
19761;BME280;10039;42.632;23.408;2023-01-28T00:29:22;94340.06;;;1.39;77.82
19761;BME280;10039;42.632;23.408;2023-01-28T00:31:48;94339.72;;;1.47;78.18
19761;BME280;10039;42.632;23.408;2023-01-28T00:34:14;94382.94;;;1.60;78.36
19761;BME280;10039;42.632;23.408;2023-01-28T00:36:42;94389.47;;;1.87;78.03
19761;BME280;10039;42.632;23.408;2023-01-28T00:39:13;94351.41;;;1.57;77.61
19761;BME280;10039;42.632;23.408;2023-01-28T00:41:42;94368.38;;;1.70;76.92
19761;BME280;10039;42.632;23.408;2023-01-28T00:44:08;94387.16;;;1.79;77.47
19761;BME280;10039;42.632;23.408;2023-01-28T00:46:33;94381.22;;;1.89;77.10
19761;BME280;10039;42.632;23.408;2023-01-28T00:48:59;94352.63;;;1.84;77.10
19761;BME280;10039;42.632;23.408;2023-01-28T00:51:26;94377.47;;;1.93;76.70
19761;BME280;10039;42.632;23.408;2023-01-28T00:53:51;94386.00;;;1.66;77.03
19761;BME280;10039;42.632;23.408;2023-01-28T00:56:18;94406.38;;;1.86;77.14
19761;BME280;10039;42.632;23.408;2023-01-28T00:58:45;94352.50;;;1.56;77.07
19761;BME280;10039;42.632;23.408;2023-01-28T01:01:12;94394.75;;;1.91;77.12
19761;BME280;10039;42.632;23.408;2023-01-28T01:03:38;94380.47;;;1.92;76.87
19761;BME280;10039;42.632;23.408;2023-01-28T01:06:04;94382.03;;;2.07;77.25
19761;BME280;10039;42.632;23.408;2023-01-28T01:08:30;94381.59;;;1.91;76.37
19761;BME280;10039;42.632;23.408;2023-01-28T01:11:06;94369.09;;;1.70;76.22
19761;BME280;10039;42.632;23.408;2023-01-28T01:13:33;94366.84;;;1.69;76.87
19761;BME280;10039;42.632;23.408;2023-01-28T01:16:20;94371.78;;;1.77;76.71
19761;BME280;10039;42.632;23.408;2023-01-28T01:18:46;94343.91;;;1.59;77.05
19761;BME280;10039;42.632;23.408;2023-01-28T01:21:17;94410.56;;;1.98;76.80
19761;BME280;10039;42.632;23.408;2023-01-28T01:23:43;94377.38;;;1.69;76.42
19761;BME280;10039;42.632;23.408;2023-01-28T01:26:09;94379.28;;;1.72;77.08
19761;BME280;10039;42.632;23.408;2023-01-28T01:28:35;94352.22;;;1.71;76.56
19761;BME280;10039;42.632;23.408;2023-01-28T01:31:04;94381.16;;;1.75;76.68
19761;BME280;10039;42.632;23.408;2023-01-28T01:33:30;94421.84;;;2.09;77.04
19761;BME280;10039;42.632;23.408;2023-01-28T01:35:57;94382.63;;;1.72;76.37
19761;BME280;10039;42.632;23.408;2023-01-28T01:38:23;94362.00;;;1.74;76.54
19761;BME280;10039;42.632;23.408;2023-01-28T01:40:50;94383.09;;;1.92;76.30
19761;BME280;10039;42.632;23.408;2023-01-28T01:43:21;94375.91;;;1.82;75.81
19761;BME280;10039;42.632;23.408;2023-01-28T01:45:54;94378.16;;;1.80;76.19
19761;BME280;10039;42.632;23.408;2023-01-28T01:48:22;94399.22;;;1.87;76.64
19761;BME280;10039;42.632;23.408;2023-01-28T01:50:55;94376.50;;;1.51;76.65
19761;BME280;10039;42.632;23.408;2023-01-28T01:53:24;94386.34;;;1.64;76.82
19761;BME280;10039;42.632;23.408;2023-01-28T01:55:53;94351.66;;;1.34;76.80
19761;BME280;10039;42.632;23.408;2023-01-28T01:58:26;94398.41;;;1.69;77.00
19761;BME280;10039;42.632;23.408;2023-01-28T02:00:53;94365.16;;;1.36;76.82
19761;BME280;10039;42.632;23.408;2023-01-28T02:03:25;94369.97;;;1.24;77.44
19761;BME280;10039;42.632;23.408;2023-01-28T02:05:52;94366.56;;;1.20;77.23
19761;BME280;10039;42.632;23.408;2023-01-28T02:08:18;94377.78;;;1.13;77.97
19761;BME280;10039;42.632;23.408;2023-01-28T02:10:57;94373.41;;;1.31;77.93
19761;BME280;10039;42.632;23.408;2023-01-28T02:13:27;94411.13;;;1.60;77.30
19761;BME280;10039;42.632;23.408;2023-01-28T02:15:58;94419.16;;;1.88;76.92
19761;BME280;10039;42.632;23.408;2023-01-28T02:18:25;94374.25;;;1.49;76.72
19761;BME280;10039;42.632;23.408;2023-01-28T02:34:40;94397.59;;;1.58;76.58
19761;BME280;10039;42.632;23.408;2023-01-28T02:37:20;94389.72;;;1.61;76.26
19761;BME280;10039;42.632;23.408;2023-01-28T02:39:50;94438.38;;;1.99;75.99
19761;BME280;10039;42.632;23.408;2023-01-28T02:42:29;94410.53;;;1.87;76.08
19761;BME280;10039;42.632;23.408;2023-01-28T02:44:56;94405.97;;;1.81;75.77
19761;BME280;10039;42.632;23.408;2023-01-28T02:47:22;94430.19;;;2.21;75.36
19761;BME280;10039;42.632;23.408;2023-01-28T02:50:10;94410.66;;;2.22;75.11
19761;BME280;10039;42.632;23.408;2023-01-28T02:53:00;94362.44;;;1.90;74.62
19761;BME280;10039;42.632;23.408;2023-01-28T02:56:13;94396.31;;;2.06;74.99
19761;BME280;10039;42.632;23.408;2023-01-28T02:59:00;94397.03;;;1.96;74.84
19761;BME280;10039;42.632;23.408;2023-01-28T03:01:52;94455.41;;;2.29;74.91
19761;BME280;10039;42.632;23.408;2023-01-28T03:04:29;94436.59;;;2.20;74.92
19761;BME280;10039;42.632;23.408;2023-01-28T03:07:00;94393.31;;;2.04;75.32
19761;BME280;10039;42.632;23.408;2023-01-28T03:09:30;94420.41;;;2.18;74.63
19761;BME280;10039;42.632;23.408;2023-01-28T03:12:18;94434.72;;;2.31;74.71
19761;BME280;10039;42.632;23.408;2023-01-28T03:15:09;94440.31;;;2.16;75.02
19761;BME280;10039;42.632;23.408;2023-01-28T03:21:14;94392.63;;;1.46;75.21
19761;BME280;10039;42.632;23.408;2023-01-28T03:24:16;94447.34;;;1.91;75.96
19761;BME280;10039;42.632;23.408;2023-01-28T03:30:21;94423.91;;;1.65;75.92
19761;BME280;10039;42.632;23.408;2023-01-28T03:33:08;94423.16;;;1.64;75.95
19761;BME280;10039;42.632;23.408;2023-01-28T03:35:53;94431.78;;;1.61;76.00
19761;BME280;10039;42.632;23.408;2023-01-28T03:38:40;94400.59;;;1.60;75.98
19761;BME280;10039;42.632;23.408;2023-01-28T03:41:20;94402.47;;;1.56;75.87
19761;BME280;10039;42.632;23.408;2023-01-28T03:43:47;94406.19;;;1.51;75.20
19761;BME280;10039;42.632;23.408;2023-01-28T03:46:13;94413.03;;;1.63;75.14
19761;BME280;10039;42.632;23.408;2023-01-28T03:48:39;94443.50;;;1.71;75.80
19761;BME280;10039;42.632;23.408;2023-01-28T03:51:05;94423.88;;;1.61;76.01
19761;BME280;10039;42.632;23.408;2023-01-28T03:53:30;94453.28;;;1.74;75.93
19761;BME280;10039;42.632;23.408;2023-01-28T03:55:56;94405.03;;;1.49;76.19
19761;BME280;10039;42.632;23.408;2023-01-28T03:58:23;94409.63;;;1.59;76.10
19761;BME280;10039;42.632;23.408;2023-01-28T04:01:08;94407.72;;;1.56;76.12
19761;BME280;10039;42.632;23.408;2023-01-28T04:03:34;94414.09;;;1.51;76.30
19761;BME280;10039;42.632;23.408;2023-01-28T04:06:03;94405.81;;;1.53;76.00
19761;BME280;10039;42.632;23.408;2023-01-28T04:08:30;94424.59;;;1.51;75.83
19761;BME280;10039;42.632;23.408;2023-01-28T04:10:56;94409.38;;;1.24;75.98
19761;BME280;10039;42.632;23.408;2023-01-28T04:13:21;94452.78;;;1.54;76.38
19761;BME280;10039;42.632;23.408;2023-01-28T04:15:47;94412.06;;;1.27;75.48
19761;BME280;10039;42.632;23.408;2023-01-28T04:18:13;94456.47;;;1.43;76.03
19761;BME280;10039;42.632;23.408;2023-01-28T04:20:39;94431.91;;;1.25;76.06
19761;BME280;10039;42.632;23.408;2023-01-28T04:23:06;94427.72;;;1.13;75.90
19761;BME280;10039;42.632;23.408;2023-01-28T04:25:32;94459.09;;;1.43;76.30
19761;BME280;10039;42.632;23.408;2023-01-28T04:27:58;94449.59;;;1.28;76.33
19761;BME280;10039;42.632;23.408;2023-01-28T04:30:25;94420.56;;;1.10;76.30
19761;BME280;10039;42.632;23.408;2023-01-28T04:32:51;94426.56;;;1.11;75.95
19761;BME280;10039;42.632;23.408;2023-01-28T04:35:17;94457.47;;;1.28;75.53
19761;BME280;10039;42.632;23.408;2023-01-28T04:37:44;94460.88;;;1.32;76.38
19761;BME280;10039;42.632;23.408;2023-01-28T04:40:11;94491.03;;;1.52;75.86
19761;BME280;10039;42.632;23.408;2023-01-28T04:42:37;94474.06;;;1.39;76.03
19761;BME280;10039;42.632;23.408;2023-01-28T04:45:04;94479.34;;;1.46;76.58
19761;BME280;10039;42.632;23.408;2023-01-28T04:47:30;94439.78;;;1.25;76.06
19761;BME280;10039;42.632;23.408;2023-01-28T04:49:55;94483.84;;;1.42;75.71
19761;BME280;10039;42.632;23.408;2023-01-28T04:52:21;94483.16;;;1.52;75.75
19761;BME280;10039;42.632;23.408;2023-01-28T04:54:47;94460.22;;;1.42;75.75
19761;BME280;10039;42.632;23.408;2023-01-28T04:57:13;94482.94;;;1.71;75.95
19761;BME280;10039;42.632;23.408;2023-01-28T04:59:40;94482.16;;;1.67;75.27
19761;BME280;10039;42.632;23.408;2023-01-28T05:02:06;94492.53;;;1.49;75.13
19761;BME280;10039;42.632;23.408;2023-01-28T05:04:35;94491.09;;;1.59;75.34
19761;BME280;10039;42.632;23.408;2023-01-28T05:07:01;94513.25;;;1.58;75.89
19761;BME280;10039;42.632;23.408;2023-01-28T05:09:26;94489.06;;;1.38;76.32
19761;BME280;10039;42.632;23.408;2023-01-28T05:11:52;94476.16;;;1.19;76.25
19761;BME280;10039;42.632;23.408;2023-01-28T05:14:18;94486.53;;;1.02;76.70
19761;BME280;10039;42.632;23.408;2023-01-28T05:16:43;94482.47;;;1.08;77.52
19761;BME280;10039;42.632;23.408;2023-01-28T05:19:09;94527.06;;;1.48;77.26
19761;BME280;10039;42.632;23.408;2023-01-28T05:21:35;94510.38;;;1.26;76.99
19761;BME280;10039;42.632;23.408;2023-01-28T05:24:00;94519.16;;;1.48;76.90
19761;BME280;10039;42.632;23.408;2023-01-28T05:26:26;94532.22;;;1.34;77.12
19761;BME280;10039;42.632;23.408;2023-01-28T05:28:52;94501.56;;;1.05;77.53
19761;BME280;10039;42.632;23.408;2023-01-28T05:31:17;94485.00;;;1.01;76.82
19761;BME280;10039;42.632;23.408;2023-01-28T05:33:43;94539.41;;;1.44;77.18
19761;BME280;10039;42.632;23.408;2023-01-28T05:36:09;94489.53;;;1.04;77.00
19761;BME280;10039;42.632;23.408;2023-01-28T05:38:35;94480.47;;;0.95;76.41
19761;BME280;10039;42.632;23.408;2023-01-28T05:41:00;94478.00;;;0.72;77.26
19761;BME280;10039;42.632;23.408;2023-01-28T05:43:26;94517.38;;;1.12;77.12
19761;BME280;10039;42.632;23.408;2023-01-28T05:45:53;94490.91;;;0.88;77.33
19761;BME280;10039;42.632;23.408;2023-01-28T05:48:18;94480.34;;;0.84;77.39
19761;BME280;10039;42.632;23.408;2023-01-28T05:50:47;94513.13;;;0.97;77.23
19761;BME280;10039;42.632;23.408;2023-01-28T05:53:13;94512.84;;;1.09;77.47
19761;BME280;10039;42.632;23.408;2023-01-28T05:55:39;94503.25;;;0.87;77.17
19761;BME280;10039;42.632;23.408;2023-01-28T05:58:05;94537.31;;;1.16;77.00
19761;BME280;10039;42.632;23.408;2023-01-28T06:00:30;94506.25;;;0.86;76.95
19761;BME280;10039;42.632;23.408;2023-01-28T06:02:56;94538.53;;;1.26;76.68
19761;BME280;10039;42.632;23.408;2023-01-28T06:05:21;94499.59;;;0.95;75.93
19761;BME280;10039;42.632;23.408;2023-01-28T06:07:47;94562.03;;;1.12;76.64
19761;BME280;10039;42.632;23.408;2023-01-28T06:10:14;94527.09;;;0.72;77.04
19761;BME280;10039;42.632;23.408;2023-01-28T06:12:42;94574.88;;;1.20;77.55
19761;BME280;10039;42.632;23.408;2023-01-28T06:15:09;94520.97;;;0.94;77.03
19761;BME280;10039;42.632;23.408;2023-01-28T06:17:34;94532.25;;;0.98;76.75
19761;BME280;10039;42.632;23.408;2023-01-28T06:20:00;94533.88;;;1.09;76.75
19761;BME280;10039;42.632;23.408;2023-01-28T06:22:26;94553.53;;;1.25;76.43
19761;BME280;10039;42.632;23.408;2023-01-28T06:24:52;94568.50;;;1.21;76.05
19761;BME280;10039;42.632;23.408;2023-01-28T06:27:18;94576.78;;;1.23;76.37
19761;BME280;10039;42.632;23.408;2023-01-28T06:29:43;94566.78;;;1.00;76.42
19761;BME280;10039;42.632;23.408;2023-01-28T06:32:09;94569.38;;;0.96;76.40
19761;BME280;10039;42.632;23.408;2023-01-28T06:34:35;94552.34;;;0.83;76.75
19761;BME280;10039;42.632;23.408;2023-01-28T06:37:01;94560.31;;;0.90;76.66
19761;BME280;10039;42.632;23.408;2023-01-28T06:39:28;94576.53;;;0.99;76.96
19761;BME280;10039;42.632;23.408;2023-01-28T06:41:57;94564.84;;;0.93;77.08
19761;BME280;10039;42.632;23.408;2023-01-28T06:44:22;94554.72;;;0.95;76.64
19761;BME280;10039;42.632;23.408;2023-01-28T06:46:48;94592.19;;;1.25;76.28
19761;BME280;10039;42.632;23.408;2023-01-28T06:49:14;94559.59;;;0.93;76.41
19761;BME280;10039;42.632;23.408;2023-01-28T06:51:39;94621.97;;;1.36;76.25
19761;BME280;10039;42.632;23.408;2023-01-28T06:54:05;94602.38;;;1.30;76.68
19761;BME280;10039;42.632;23.408;2023-01-28T06:56:31;94582.81;;;0.91;76.50
19761;BME280;10039;42.632;23.408;2023-01-28T06:58:57;94585.56;;;1.02;77.00
19761;BME280;10039;42.632;23.408;2023-01-28T07:01:22;94604.44;;;1.14;76.30
19761;BME280;10039;42.632;23.408;2023-01-28T07:03:48;94576.63;;;1.06;76.09
19761;BME280;10039;42.632;23.408;2023-01-28T07:06:13;94640.84;;;1.48;76.52
19761;BME280;10039;42.632;23.408;2023-01-28T07:08:39;94620.53;;;1.42;76.47
19761;BME280;10039;42.632;23.408;2023-01-28T07:11:06;94619.25;;;1.29;76.33
19761;BME280;10039;42.632;23.408;2023-01-28T07:13:32;94647.78;;;1.67;76.24
19761;BME280;10039;42.632;23.408;2023-01-28T07:15:58;94617.66;;;1.57;76.00
19761;BME280;10039;42.632;23.408;2023-01-28T07:18:24;94603.81;;;1.24;75.76
19761;BME280;10039;42.632;23.408;2023-01-28T07:20:49;94673.84;;;1.46;76.19
19761;BME280;10039;42.632;23.408;2023-01-28T07:23:15;94614.19;;;1.10;76.35
19761;BME280;10039;42.632;23.408;2023-01-28T07:25:40;94599.53;;;1.09;76.39
19761;BME280;10039;42.632;23.408;2023-01-28T07:28:06;94668.28;;;1.18;76.35
19761;BME280;10039;42.632;23.408;2023-01-28T07:30:32;94689.56;;;1.39;76.06
19761;BME280;10039;42.632;23.408;2023-01-28T07:32:59;94631.06;;;1.09;76.04
19761;BME280;10039;42.632;23.408;2023-01-28T07:35:25;94643.72;;;1.36;76.10
19761;BME280;10039;42.632;23.408;2023-01-28T07:37:58;94632.00;;;1.27;75.91
19761;BME280;10039;42.632;23.408;2023-01-28T07:40:25;94635.03;;;1.32;75.71
19761;BME280;10039;42.632;23.408;2023-01-28T07:42:51;94660.03;;;1.52;75.49
19761;BME280;10039;42.632;23.408;2023-01-28T07:45:18;94656.63;;;1.48;75.90
19761;BME280;10039;42.632;23.408;2023-01-28T07:47:44;94631.91;;;1.20;75.63
19761;BME280;10039;42.632;23.408;2023-01-28T07:50:10;94644.25;;;1.16;76.04
19761;BME280;10039;42.632;23.408;2023-01-28T07:52:36;94658.59;;;1.22;76.00
19761;BME280;10039;42.632;23.408;2023-01-28T07:55:10;94655.13;;;1.14;75.95
19761;BME280;10039;42.632;23.408;2023-01-28T07:57:36;94652.03;;;1.06;76.17
19761;BME280;10039;42.632;23.408;2023-01-28T08:00:03;94671.00;;;1.25;76.07
19761;BME280;10039;42.632;23.408;2023-01-28T08:02:28;94709.06;;;1.38;76.04
19761;BME280;10039;42.632;23.408;2023-01-28T08:04:54;94687.88;;;1.24;76.12
19761;BME280;10039;42.632;23.408;2023-01-28T08:07:23;94680.31;;;1.19;75.91
19761;BME280;10039;42.632;23.408;2023-01-28T08:09:50;94686.69;;;1.18;76.29
19761;BME280;10039;42.632;23.408;2023-01-28T08:12:16;94682.16;;;1.15;76.16
19761;BME280;10039;42.632;23.408;2023-01-28T08:14:42;94667.03;;;1.05;76.50
19761;BME280;10039;42.632;23.408;2023-01-28T08:17:07;94658.94;;;0.88;75.93
19761;BME280;10039;42.632;23.408;2023-01-28T08:19:33;94664.28;;;0.95;76.37
19761;BME280;10039;42.632;23.408;2023-01-28T08:21:58;94700.31;;;1.27;76.06
19761;BME280;10039;42.632;23.408;2023-01-28T08:24:24;94691.22;;;1.21;76.17
19761;BME280;10039;42.632;23.408;2023-01-28T08:26:50;94690.78;;;1.15;76.33
19761;BME280;10039;42.632;23.408;2023-01-28T08:29:15;94710.94;;;1.37;76.40
19761;BME280;10039;42.632;23.408;2023-01-28T08:31:41;94709.78;;;1.35;75.88
19761;BME280;10039;42.632;23.408;2023-01-28T08:34:07;94702.91;;;1.23;75.64
19761;BME280;10039;42.632;23.408;2023-01-28T08:36:33;94686.25;;;1.12;75.71
19761;BME280;10039;42.632;23.408;2023-01-28T08:38:58;94656.75;;;0.93;76.24
19761;BME280;10039;42.632;23.408;2023-01-28T08:41:23;94677.34;;;1.20;76.28
19761;BME280;10039;42.632;23.408;2023-01-28T08:43:49;94703.84;;;1.41;76.32
19761;BME280;10039;42.632;23.408;2023-01-28T08:46:15;94668.66;;;1.16;75.62
19761;BME280;10039;42.632;23.408;2023-01-28T08:48:41;94683.50;;;1.35;75.71
19761;BME280;10039;42.632;23.408;2023-01-28T08:51:07;94694.25;;;1.56;75.72
19761;BME280;10039;42.632;23.408;2023-01-28T08:53:33;94698.06;;;1.62;75.46
19761;BME280;10039;42.632;23.408;2023-01-28T08:55:58;94699.06;;;1.50;75.43
19761;BME280;10039;42.632;23.408;2023-01-28T08:58:24;94661.91;;;1.15;75.15
19761;BME280;10039;42.632;23.408;2023-01-28T09:00:50;94709.63;;;1.54;75.63
19761;BME280;10039;42.632;23.408;2023-01-28T09:03:17;94667.06;;;1.41;75.07
19761;BME280;10039;42.632;23.408;2023-01-28T09:05:43;94708.66;;;1.69;75.24
19761;BME280;10039;42.632;23.408;2023-01-28T09:08:12;94694.41;;;1.70;74.71
19761;BME280;10039;42.632;23.408;2023-01-28T09:10:38;94696.81;;;1.85;73.67
19761;BME280;10039;42.632;23.408;2023-01-28T09:13:11;94679.59;;;1.55;74.08
19761;BME280;10039;42.632;23.408;2023-01-28T09:15:37;94660.06;;;1.56;74.06
19761;BME280;10039;42.632;23.408;2023-01-28T09:18:03;94704.63;;;1.82;74.03
19761;BME280;10039;42.632;23.408;2023-01-28T09:20:29;94706.59;;;1.88;74.39
19761;BME280;10039;42.632;23.408;2023-01-28T09:22:54;94689.16;;;1.73;73.83
19761;BME280;10039;42.632;23.408;2023-01-28T09:25:20;94697.16;;;1.84;73.84
19761;BME280;10039;42.632;23.408;2023-01-28T09:27:46;94719.47;;;2.00;74.12
19761;BME280;10039;42.632;23.408;2023-01-28T09:30:11;94704.47;;;2.01;74.26
19761;BME280;10039;42.632;23.408;2023-01-28T09:32:37;94679.44;;;1.77;73.65
19761;BME280;10039;42.632;23.408;2023-01-28T09:35:03;94719.59;;;2.14;73.50
19761;BME280;10039;42.632;23.408;2023-01-28T09:37:29;94725.03;;;2.31;73.57
19761;BME280;10039;42.632;23.408;2023-01-28T09:39:54;94718.00;;;2.03;73.52
19761;BME280;10039;42.632;23.408;2023-01-28T09:42:41;94690.78;;;1.85;73.71
19761;BME280;10039;42.632;23.408;2023-01-28T09:45:16;94725.63;;;2.15;74.01
19761;BME280;10039;42.632;23.408;2023-01-28T09:47:50;94715.81;;;2.12;73.97
19761;BME280;10039;42.632;23.408;2023-01-28T09:50:25;94713.53;;;2.07;74.33
19761;BME280;10039;42.632;23.408;2023-01-28T09:52:58;94703.75;;;2.07;74.46
19761;BME280;10039;42.632;23.408;2023-01-28T09:55:34;94719.63;;;2.17;74.45
19761;BME280;10039;42.632;23.408;2023-01-28T09:58:00;94716.66;;;2.19;74.65
19761;BME280;10039;42.632;23.408;2023-01-28T10:03:36;94722.78;;;2.33;74.93
19761;BME280;10039;42.632;23.408;2023-01-28T10:06:17;94710.00;;;2.35;74.85
19761;BME280;10039;42.632;23.408;2023-01-28T10:11:22;94714.91;;;2.37;73.86
19761;BME280;10039;42.632;23.408;2023-01-28T10:14:16;94719.03;;;2.34;74.32
19761;BME280;10039;42.632;23.408;2023-01-28T10:19:50;94711.72;;;2.14;74.85
19761;BME280;10039;42.632;23.408;2023-01-28T10:22:29;94685.97;;;1.94;74.57
19761;BME280;10039;42.632;23.408;2023-01-28T10:25:01;94719.56;;;2.11;74.74
19761;BME280;10039;42.632;23.408;2023-01-28T10:27:31;94718.44;;;2.08;74.87
19761;BME280;10039;42.632;23.408;2023-01-28T10:29:59;94687.47;;;1.91;74.72
19761;BME280;10039;42.632;23.408;2023-01-28T10:32:30;94715.69;;;1.98;75.04
19761;BME280;10039;42.632;23.408;2023-01-28T10:34:56;94694.50;;;1.80;75.44
19761;BME280;10039;42.632;23.408;2023-01-28T10:37:31;94691.56;;;1.89;74.97
19761;BME280;10039;42.632;23.408;2023-01-28T10:39:58;94718.59;;;1.86;75.12
19761;BME280;10039;42.632;23.408;2023-01-28T10:42:28;94715.69;;;1.98;75.59
19761;BME280;10039;42.632;23.408;2023-01-28T10:45:01;94696.72;;;1.78;75.32
19761;BME280;10039;42.632;23.408;2023-01-28T10:47:47;94712.69;;;1.96;75.37
19761;BME280;10039;42.632;23.408;2023-01-28T10:50:23;94711.88;;;1.92;75.72
19761;BME280;10039;42.632;23.408;2023-01-28T10:55:23;94682.06;;;1.77;75.23
19761;BME280;10039;42.632;23.408;2023-01-28T10:57:51;94703.75;;;2.04;75.17
19761;BME280;10039;42.632;23.408;2023-01-28T11:00:23;94706.75;;;2.06;74.44
19761;BME280;10039;42.632;23.408;2023-01-28T11:02:50;94682.28;;;2.02;74.71
19761;BME280;10039;42.632;23.408;2023-01-28T11:05:18;94714.03;;;2.19;74.38
19761;BME280;10039;42.632;23.408;2023-01-28T11:07:47;94705.34;;;2.18;73.85
19761;BME280;10039;42.632;23.408;2023-01-28T11:10:35;94717.41;;;2.19;74.36
19761;BME280;10039;42.632;23.408;2023-01-28T11:13:03;94710.59;;;2.15;74.70
19761;BME280;10039;42.632;23.408;2023-01-28T11:15:29;94706.16;;;2.26;73.57
19761;BME280;10039;42.632;23.408;2023-01-28T11:18:03;94662.28;;;1.90;74.03
19761;BME280;10039;42.632;23.408;2023-01-28T11:20:41;94657.03;;;1.94;74.06
19761;BME280;10039;42.632;23.408;2023-01-28T11:23:22;94669.13;;;2.02;74.24
19761;BME280;10039;42.632;23.408;2023-01-28T11:25:48;94668.44;;;2.12;73.07
19761;BME280;10039;42.632;23.408;2023-01-28T11:28:24;94662.44;;;2.11;73.07
19761;BME280;10039;42.632;23.408;2023-01-28T11:30:52;94672.25;;;2.14;72.84
19761;BME280;10039;42.632;23.408;2023-01-28T11:33:23;94675.13;;;1.99;73.21
19761;BME280;10039;42.632;23.408;2023-01-28T11:35:56;94707.97;;;2.18;73.83
19761;BME280;10039;42.632;23.408;2023-01-28T11:38:24;94670.94;;;1.94;73.61
19761;BME280;10039;42.632;23.408;2023-01-28T11:40:54;94690.97;;;2.06;74.28
19761;BME280;10039;42.632;23.408;2023-01-28T11:43:23;94686.47;;;2.06;74.18
19761;BME280;10039;42.632;23.408;2023-01-28T11:49:13;94693.78;;;2.26;73.94
19761;BME280;10039;42.632;23.408;2023-01-28T12:03:40;94686.94;;;2.18;73.43
19761;BME280;10039;42.632;23.408;2023-01-28T12:06:42;94694.56;;;2.34;73.65
19761;BME280;10039;42.632;23.408;2023-01-28T12:09:34;94671.47;;;2.10;73.24
19761;BME280;10039;42.632;23.408;2023-01-28T12:12:39;94667.72;;;2.11;72.79
19761;BME280;10039;42.632;23.408;2023-01-28T12:18:36;94658.28;;;2.07;72.63
19761;BME280;10039;42.632;23.408;2023-01-28T12:21:11;94670.09;;;2.26;73.33
19761;BME280;10039;42.632;23.408;2023-01-28T12:24:13;94702.38;;;2.70;72.67
19761;BME280;10039;42.632;23.408;2023-01-28T12:32:31;94658.97;;;2.50;72.19
19761;BME280;10039;42.632;23.408;2023-01-28T12:38:18;94699.63;;;2.60;71.83
19761;BME280;10039;42.632;23.408;2023-01-28T12:46:10;94673.16;;;2.35;71.51
19761;BME280;10039;42.632;23.408;2023-01-28T12:48:44;94723.00;;;2.61;71.58
19761;BME280;10039;42.632;23.408;2023-01-28T12:51:19;94721.47;;;2.60;72.38
19761;BME280;10039;42.632;23.408;2023-01-28T12:53:50;94710.09;;;2.46;72.21
19761;BME280;10039;42.632;23.408;2023-01-28T12:56:19;94676.13;;;2.30;72.32
19761;BME280;10039;42.632;23.408;2023-01-28T12:59:18;94729.84;;;2.76;71.29
19761;BME280;10039;42.632;23.408;2023-01-28T13:01:50;94729.06;;;2.72;71.36
19761;BME280;10039;42.632;23.408;2023-01-28T13:04:49;94721.16;;;2.69;71.66
19761;BME280;10039;42.632;23.408;2023-01-28T13:07:27;94718.91;;;2.71;71.65
19761;BME280;10039;42.632;23.408;2023-01-28T13:10:10;94730.19;;;2.71;71.47
19761;BME280;10039;42.632;23.408;2023-01-28T13:12:40;94690.09;;;2.41;72.02
19761;BME280;10039;42.632;23.408;2023-01-28T13:15:11;94743.34;;;2.68;71.93
19761;BME280;10039;42.632;23.408;2023-01-28T13:17:38;94701.66;;;2.26;71.78
19761;BME280;10039;42.632;23.408;2023-01-28T13:20:15;94733.53;;;2.65;72.17
19761;BME280;10039;42.632;23.408;2023-01-28T13:22:43;94740.72;;;2.71;72.08
19761;BME280;10039;42.632;23.408;2023-01-28T13:27:54;94704.22;;;2.19;70.87
19761;BME280;10039;42.632;23.408;2023-01-28T13:30:29;94702.38;;;2.23;71.12
19761;BME280;10039;42.632;23.408;2023-01-28T13:33:26;94711.53;;;2.36;71.31
19761;BME280;10039;42.632;23.408;2023-01-28T13:35:54;94753.06;;;2.60;71.92
19761;BME280;10039;42.632;23.408;2023-01-28T13:38:20;94751.19;;;2.61;72.05
19761;BME280;10039;42.632;23.408;2023-01-28T13:40:57;94735.34;;;2.54;72.13
19761;BME280;10039;42.632;23.408;2023-01-28T13:45:55;94741.63;;;2.42;71.41
19761;BME280;10039;42.632;23.408;2023-01-28T13:48:44;94755.03;;;2.70;71.23
19761;BME280;10039;42.632;23.408;2023-01-28T13:51:16;94766.69;;;2.69;71.47
19761;BME280;10039;42.632;23.408;2023-01-28T13:53:47;94747.72;;;2.50;71.45
19761;BME280;10039;42.632;23.408;2023-01-28T14:11:30;94780.72;;;2.37;71.72
19761;BME280;10039;42.632;23.408;2023-01-28T14:17:09;94798.56;;;2.14;72.94
19761;BME280;10039;42.632;23.408;2023-01-28T14:19:43;94757.72;;;1.91;73.06
19761;BME280;10039;42.632;23.408;2023-01-28T14:22:16;94744.94;;;1.89;72.46
19761;BME280;10039;42.632;23.408;2023-01-28T14:24:43;94772.91;;;2.08;72.12
19761;BME280;10039;42.632;23.408;2023-01-28T14:27:17;94798.66;;;2.24;72.62
19761;BME280;10039;42.632;23.408;2023-01-28T14:30:12;94805.44;;;2.25;72.77
19761;BME280;10039;42.632;23.408;2023-01-28T14:32:45;94786.44;;;2.06;72.55
19761;BME280;10039;42.632;23.408;2023-01-28T14:35:18;94778.84;;;1.98;73.04
19761;BME280;10039;42.632;23.408;2023-01-28T14:37:46;94801.59;;;2.19;72.55
19761;BME280;10039;42.632;23.408;2023-01-28T14:40:14;94760.06;;;1.99;72.24
19761;BME280;10039;42.632;23.408;2023-01-28T14:42:43;94770.88;;;1.91;72.48